Luckenback, Texas
Current Conditions -  °F | °C
As of 1:35 PM on Thursday 23 Oct 2014 (Local Time) from KT82 Reporting Station
Overcast Overcast  
Wind Chill: 73°   Ceiling: 6500
Heat Index: 73°   Visibility: 10mi
Dew Point: 61°   Wind: 7mph
Humidity: 65%   Direction: 250°WSW
Pressure: 30.15"   Gusts: NA
Location:  30.3069°N, 98.8978°W
Report Text: KT82 231835Z AUTO 25006KT 10SM SCT027 BKN065 OVC085 23/16 A3015 RMK AO2 T02300162
Loading
Personal Weather Stations






























Interactive Weather Map
Tropical Storm Tracking
New forecast layout! Learn more

10-Day Weather Forecast

Advertisements
Track Severe Weather on mobile